Time;durP1;ratioP1;P1;durP2;ratioP2;P2;SDS_P1;SDS_P2;PMS_P1;PMS_P2;Temp;Humidity;BMP_temperature;BMP_pressure;BME280_temperature;BME280_humidity;BME280_pressure;Samples;Min_cycle;Max_cycle;Signal;HPM_P1;HPM_P2
2021/03/18 00:01:35;;;;;;;11.93;3.78;;;0.20;95.70;;;;;;5032984;28;20476;-79
2021/03/18 00:04:04;;;;;;;12.05;4.22;;;0.20;95.80;;;;;;5023468;28;20116;-79
2021/03/18 00:06:30;;;;;;;13.95;3.70;;;0.20;95.80;;;;;;5033727;28;20042;-79
2021/03/18 00:08:56;;;;;;;11.00;4.32;;;0.10;95.60;;;;;;5021175;28;20101;-79
2021/03/18 00:11:23;;;;;;;10.45;4.15;;;0.10;95.70;;;;;;5019460;28;20391;-79
2021/03/18 00:13:49;;;;;;;13.32;5.40;;;0.10;95.70;;;;;;5023366;28;20046;-79
2021/03/18 00:16:16;;;;;;;14.38;4.88;;;0.00;95.50;;;;;;5026900;28;20058;-79
2021/03/18 00:18:48;;;;;;;13.00;5.45;;;0.00;95.60;;;;;;5026689;28;20493;-79
2021/03/18 00:21:15;;;;;;;11.98;4.45;;;0.00;95.60;;;;;;5032141;28;20103;-79
2021/03/18 00:23:41;;;;;;;19.02;5.88;;;-0.10;95.60;;;;;;5030278;28;20038;-79
2021/03/18 00:26:07;;;;;;;15.60;5.18;;;-0.10;95.60;;;;;;5021793;28;20072;-79
2021/03/18 00:28:35;;;;;;;11.13;4.30;;;-0.10;95.70;;;;;;5027147;28;20037;-79
2021/03/18 00:31:03;;;;;;;12.32;6.22;;;-0.10;95.60;;;;;;5017659;28;20092;-79
2021/03/18 00:33:29;;;;;;;12.45;5.22;;;-0.10;95.70;;;;;;5021388;28;20076;-79
2021/03/18 00:35:56;;;;;;;15.38;5.90;;;-0.20;95.80;;;;;;5038149;28;20090;-79
2021/03/18 00:38:23;;;;;;;9.23;5.13;;;-0.20;95.70;;;;;;5029099;28;20067;-79
2021/03/18 00:40:55;;;;;;;16.33;6.82;;;-0.20;95.80;;;;;;5017382;28;20125;-79
2021/03/18 00:43:21;;;;;;;15.50;5.22;;;-0.20;95.80;;;;;;5023567;28;20103;-79
2021/03/18 00:45:48;;;;;;;13.27;5.32;;;-0.30;96.00;;;;;;5031521;28;20136;-78
2021/03/18 00:48:16;;;;;;;13.50;4.78;;;-0.20;95.90;;;;;;5025455;28;20092;-80
2021/03/18 00:50:45;;;;;;;14.38;5.35;;;-0.20;95.90;;;;;;5023149;28;20045;-79
2021/03/18 00:53:15;;;;;;;13.82;5.20;;;-0.30;95.90;;;;;;5037132;28;20053;-79
2021/03/18 00:55:41;;;;;;;13.98;5.57;;;-0.30;95.90;;;;;;5022505;28;20393;-79
2021/03/18 00:58:07;;;;;;;17.55;6.07;;;-0.30;95.90;;;;;;5019078;28;20040;-79
2021/03/18 01:00:35;;;;;;;19.20;7.60;;;-0.30;95.90;;;;;;5031416;28;20037;-79
2021/03/18 01:03:01;;;;;;;14.48;6.03;;;-0.30;96.10;;;;;;5020267;28;20052;-79
2021/03/18 01:05:37;;;;;;;17.05;7.00;;;-0.30;96.40;;;;;;5032306;28;20033;-79
2021/03/18 01:08:04;;;;;;;20.60;6.60;;;-0.30;96.40;;;;;;5027528;28;20049;-79
2021/03/18 01:10:34;;;;;;;14.88;6.53;;;-0.30;96.80;;;;;;5026454;28;20056;-79
2021/03/18 01:13:00;;;;;;;13.15;5.90;;;-0.30;96.70;;;;;;5028526;28;20477;-79
2021/03/18 01:15:26;;;;;;;17.67;5.88;;;-0.20;96.60;;;;;;5025417;28;20041;-79
2021/03/18 01:17:54;;;;;;;14.35;5.55;;;-0.20;96.60;;;;;;5020798;28;20176;-79
2021/03/18 01:20:20;;;;;;;12.90;5.50;;;-0.20;96.60;;;;;;5026129;28;20025;-79
2021/03/18 01:22:46;;;;;;;18.52;7.80;;;-0.20;96.60;;;;;;5022486;28;20139;-79
2021/03/18 01:25:12;;;;;;;15.25;6.15;;;-0.20;96.70;;;;;;5021101;28;20062;-79
2021/03/18 01:27:39;;;;;;;13.82;5.85;;;-0.20;96.70;;;;;;5027942;28;20034;-79
2021/03/18 01:30:16;;;;;;;16.48;6.53;;;-0.20;96.90;;;;;;5024546;28;20041;-79
2021/03/18 01:32:42;;;;;;;22.63;7.10;;;-0.10;97.10;;;;;;5025078;28;20477;-79
2021/03/18 01:35:17;;;;;;;18.85;6.20;;;-0.10;97.20;;;;;;5020775;28;20519;-79
2021/03/18 01:37:44;;;;;;;16.45;6.78;;;0.00;97.30;;;;;;5023375;28;20119;-79
2021/03/18 01:40:13;;;;;;;13.82;6.80;;;0.00;97.40;;;;;;5024652;28;20120;-79
2021/03/18 01:42:40;;;;;;;21.73;6.85;;;0.00;97.40;;;;;;5020193;28;20045;-79
2021/03/18 01:45:08;;;;;;;15.13;6.75;;;0.00;97.40;;;;;;5042180;28;20053;-79
2021/03/18 01:47:37;;;;;;;20.30;7.78;;;0.10;97.50;;;;;;5033176;28;20057;-79
2021/03/18 01:50:06;;;;;;;15.63;6.35;;;0.10;97.60;;;;;;5027417;28;20124;-79
2021/03/18 01:52:32;;;;;;;16.13;7.05;;;0.10;97.70;;;;;;5032083;28;20107;-79
2021/03/18 01:54:58;;;;;;;17.90;7.32;;;0.10;97.60;;;;;;5021624;28;20042;-79
2021/03/18 01:57:24;;;;;;;19.58;7.22;;;0.10;97.60;;;;;;5023217;28;20409;-79
2021/03/18 01:59:51;;;;;;;18.98;7.72;;;0.10;97.60;;;;;;5021290;28;20041;-79
2021/03/18 02:02:18;;;;;;;17.80;7.47;;;0.10;97.70;;;;;;5020437;28;20034;-79
2021/03/18 02:04:44;;;;;;;12.93;6.25;;;0.10;97.80;;;;;;5024216;28;20087;-79
2021/03/18 02:07:10;;;;;;;15.23;6.43;;;0.10;98.00;;;;;;5027076;28;20386;-79
2021/03/18 02:09:36;;;;;;;20.65;6.88;;;0.10;97.80;;;;;;5042324;28;20037;-79
2021/03/18 02:12:03;;;;;;;14.68;5.80;;;0.10;97.70;;;;;;5024312;28;20051;-79
2021/03/18 02:14:29;;;;;;;14.38;6.20;;;0.00;97.60;;;;;;5024458;28;20629;-79
2021/03/18 02:16:58;;;;;;;15.77;5.75;;;0.00;97.50;;;;;;5023285;28;20366;-79
2021/03/18 02:19:36;;;;;;;14.60;6.20;;;0.00;97.40;;;;;;5020887;28;20056;-79
2021/03/18 02:22:34;;;;;;;16.45;7.10;;;0.00;97.40;;;;;;5032916;28;20041;-79
2021/03/18 02:25:25;;;;;;;15.57;6.13;;;0.00;97.40;;;;;;5021356;28;20038;-79
2021/03/18 02:28:06;;;;;;;17.15;6.43;;;0.00;97.40;;;;;;5023055;28;20050;-79
2021/03/18 02:30:58;;;;;;;13.88;5.85;;;-0.10;97.40;;;;;;5039889;28;20055;-79
2021/03/18 02:34:12;;;;;;;11.70;6.90;;;0.00;97.40;;;;;;5019190;28;20083;-79
2021/03/18 02:36:53;;;;;;;22.23;6.95;;;-0.10;97.50;;;;;;5021976;28;20050;-79
2021/03/18 02:39:27;;;;;;;10.30;5.63;;;0.00;97.60;;;;;;5024189;28;20033;-79
2021/03/18 02:41:56;;;;;;;13.65;5.90;;;0.00;97.60;;;;;;5018413;28;20033;-78
2021/03/18 02:44:26;;;;;;;16.15;6.47;;;0.00;97.60;;;;;;5025407;28;20351;-78
2021/03/18 02:47:03;;;;;;;11.93;6.68;;;0.00;97.60;;;;;;5016505;28;20125;-78
2021/03/18 02:49:32;;;;;;;12.60;6.00;;;0.00;97.60;;;;;;5020497;28;20040;-78
2021/03/18 02:52:01;;;;;;;12.52;6.15;;;0.00;97.60;;;;;;5017430;28;20041;-78
2021/03/18 02:54:27;;;;;;;12.02;6.72;;;0.00;97.60;;;;;;5021006;28;20049;-79
2021/03/18 02:56:59;;;;;;;14.30;6.80;;;-0.10;97.40;;;;;;5029380;28;20049;-79
2021/03/18 02:59:31;;;;;;;20.63;7.68;;;-0.10;97.40;;;;;;5017856;28;20030;-79
2021/03/18 03:01:58;;;;;;;19.42;8.73;;;-0.10;97.30;;;;;;5023410;28;20036;-79
2021/03/18 03:04:26;;;;;;;15.85;7.55;;;-0.10;97.40;;;;;;5024858;28;20092;-79
2021/03/18 03:06:54;;;;;;;21.80;7.47;;;-0.10;97.40;;;;;;5032248;28;20506;-79
2021/03/18 03:09:20;;;;;;;17.38;7.00;;;-0.10;97.40;;;;;;5034923;28;20054;-79
2021/03/18 03:11:47;;;;;;;17.02;6.50;;;-0.10;97.40;;;;;;5021732;28;20030;-79
2021/03/18 03:14:14;;;;;;;13.65;7.20;;;-0.10;97.30;;;;;;5037713;28;20038;-79
2021/03/18 03:16:40;;;;;;;16.20;7.57;;;-0.20;97.20;;;;;;5030792;28;20096;-79
2021/03/18 03:19:07;;;;;;;13.38;5.80;;;-0.20;97.20;;;;;;5042457;28;20478;-79
2021/03/18 03:21:34;;;;;;;11.55;5.38;;;-0.20;97.20;;;;;;5028424;28;20034;-79
2021/03/18 03:24:01;;;;;;;13.02;6.20;;;-0.20;97.10;;;;;;5021215;28;20062;-79
2021/03/18 03:26:28;;;;;;;16.77;6.65;;;-0.30;97.10;;;;;;5033264;28;20087;-79
2021/03/18 03:28:55;;;;;;;13.52;6.00;;;-0.30;97.10;;;;;;5032873;28;20132;-79
2021/03/18 03:31:21;;;;;;;19.75;7.60;;;-0.30;97.00;;;;;;5028781;28;20436;-79
2021/03/18 03:33:47;;;;;;;12.10;5.47;;;-0.40;97.00;;;;;;5025464;28;20046;-78
2021/03/18 03:36:15;;;;;;;17.67;7.10;;;-0.40;97.10;;;;;;5036685;28;20072;-79
2021/03/18 03:38:41;;;;;;;18.95;7.10;;;-0.40;97.00;;;;;;5029730;28;20062;-79
2021/03/18 03:41:07;;;;;;;15.30;6.55;;;-0.40;97.10;;;;;;5031013;28;20453;-79
2021/03/18 03:43:34;;;;;;;15.25;6.32;;;-0.40;97.20;;;;;;5028482;28;20040;-79
2021/03/18 03:46:00;;;;;;;11.07;6.32;;;-0.40;97.00;;;;;;5029435;28;20037;-79
2021/03/18 03:48:29;;;;;;;15.43;6.05;;;-0.40;97.00;;;;;;5033553;28;21011;-79
2021/03/18 03:50:56;;;;;;;16.80;6.60;;;-0.40;97.00;;;;;;5036443;28;20034;-78
2021/03/18 03:53:58;;;;;;;11.18;5.45;;;-0.40;97.00;;;;;;5025511;28;20373;-79
2021/03/18 03:56:38;;;;;;;16.55;6.35;;;-0.40;97.00;;;;;;5027939;28;20124;-80
2021/03/18 03:59:13;;;;;;;11.23;6.13;;;-0.40;97.10;;;;;;5021837;28;20103;-79
2021/03/18 04:01:50;;;;;;;19.95;6.55;;;-0.40;97.10;;;;;;5026308;28;20037;-79
2021/03/18 04:04:29;;;;;;;17.75;6.45;;;-0.40;97.20;;;;;;5024647;28;20050;-79
2021/03/18 04:07:01;;;;;;;13.13;6.10;;;-0.40;97.20;;;;;;5019638;28;20200;-79
2021/03/18 04:09:28;;;;;;;18.10;6.20;;;-0.30;97.40;;;;;;5017739;28;20041;-79
2021/03/18 04:11:55;;;;;;;12.95;6.60;;;-0.30;97.40;;;;;;5022364;28;20042;-79
2021/03/18 04:14:26;;;;;;;16.63;6.25;;;-0.30;97.50;;;;;;5031949;28;20073;-79
2021/03/18 04:16:55;;;;;;;9.77;5.78;;;-0.20;97.60;;;;;;5020643;28;20112;-79
2021/03/18 04:19:22;;;;;;;13.00;6.80;;;-0.20;97.60;;;;;;5027590;28;20029;-79
2021/03/18 04:21:53;;;;;;;15.05;6.03;;;-0.20;97.70;;;;;;5028872;28;20128;-79
2021/03/18 04:24:22;;;;;;;15.63;7.57;;;-0.20;97.70;;;;;;5025580;28;20041;-79
2021/03/18 04:26:48;;;;;;;17.73;5.88;;;-0.10;97.80;;;;;;5032112;28;20045;-79
2021/03/18 04:29:16;;;;;;;13.68;6.50;;;-0.10;97.80;;;;;;5019407;28;20464;-79
2021/03/18 04:31:42;;;;;;;15.45;7.10;;;0.00;97.90;;;;;;5025686;28;20040;-79
2021/03/18 04:34:10;;;;;;;14.55;6.60;;;0.00;97.90;;;;;;5026084;28;20046;-79
2021/03/18 04:36:37;;;;;;;14.00;7.10;;;0.10;98.00;;;;;;5034340;28;20116;-79
2021/03/18 04:39:05;;;;;;;15.75;6.40;;;0.10;98.00;;;;;;5020824;28;20054;-79
2021/03/18 04:41:31;;;;;;;13.10;6.10;;;0.20;98.10;;;;;;5020429;28;20045;-79
2021/03/18 04:43:58;;;;;;;15.82;7.10;;;0.20;98.20;;;;;;5027958;28;20487;-79
2021/03/18 04:46:26;;;;;;;18.90;7.95;;;0.20;98.30;;;;;;5017192;28;20108;-79
2021/03/18 04:48:53;;;;;;;20.85;8.85;;;0.30;98.40;;;;;;5027046;28;20033;-79
2021/03/18 04:51:19;;;;;;;16.17;7.68;;;0.30;98.40;;;;;;5024284;28;20489;-79
2021/03/18 04:53:45;;;;;;;18.35;7.38;;;0.40;98.50;;;;;;5027384;28;20040;-79
2021/03/18 04:56:11;;;;;;;21.27;9.70;;;0.50;98.50;;;;;;5029329;28;20034;-79
2021/03/18 04:58:39;;;;;;;15.57;8.20;;;0.50;98.50;;;;;;5019296;28;20101;-79
2021/03/18 05:01:06;;;;;;;21.42;7.57;;;0.60;98.60;;;;;;5024186;28;20107;-79
2021/03/18 05:03:34;;;;;;;16.75;7.57;;;0.60;98.70;;;;;;5024021;28;20042;-79
2021/03/18 05:06:03;;;;;;;15.57;7.55;;;0.70;98.70;;;;;;5021184;28;20067;-79
2021/03/18 05:08:30;;;;;;;16.33;7.93;;;0.70;98.70;;;;;;5032301;28;20548;-79
2021/03/18 05:10:57;;;;;;;14.90;7.88;;;0.80;98.80;;;;;;5019807;28;20744;-79
2021/03/18 05:13:26;;;;;;;18.73;8.20;;;0.80;98.80;;;;;;5039596;28;20045;-79
2021/03/18 05:15:54;;;;;;;16.45;7.57;;;0.80;98.80;;;;;;5017544;28;20104;-79
2021/03/18 05:18:20;;;;;;;16.23;7.95;;;0.90;98.80;;;;;;5031443;28;20044;-79
2021/03/18 05:20:47;;;;;;;17.48;7.95;;;0.90;98.80;;;;;;5019789;28;20033;-79
2021/03/18 05:23:15;;;;;;;14.45;7.63;;;1.00;98.90;;;;;;5022676;28;20180;-79
2021/03/18 05:25:41;;;;;;;14.70;7.50;;;1.00;98.80;;;;;;5025642;28;20082;-78
2021/03/18 05:28:09;;;;;;;14.18;7.80;;;1.00;98.80;;;;;;5027390;28;20060;-79
2021/03/18 05:30:36;;;;;;;14.52;7.90;;;1.10;98.90;;;;;;5022460;28;20033;-79
2021/03/18 05:33:03;;;;;;;15.68;8.23;;;1.10;98.90;;;;;;5025193;28;20475;-79
2021/03/18 05:35:29;;;;;;;14.80;8.35;;;1.10;98.90;;;;;;5028636;28;20067;-78
2021/03/18 05:37:56;;;;;;;18.08;7.78;;;1.10;98.90;;;;;;5013994;28;20046;-78
2021/03/18 05:40:22;;;;;;;17.50;7.43;;;1.20;98.90;;;;;;5029894;28;20144;-78
2021/03/18 05:42:49;;;;;;;16.55;8.13;;;1.20;98.90;;;;;;5028322;28;20047;-78
2021/03/18 05:45:16;;;;;;;17.45;8.75;;;1.20;98.90;;;;;;5024931;28;20089;-78
2021/03/18 05:47:42;;;;;;;14.48;7.95;;;1.30;98.90;;;;;;5025897;28;20094;-78
2021/03/18 05:50:15;;;;;;;16.92;8.32;;;1.30;99.20;;;;;;5027149;28;20036;-78
2021/03/18 05:52:44;;;;;;;18.13;8.60;;;1.30;98.90;;;;;;5022038;28;20088;-78
2021/03/18 05:55:11;;;;;;;17.92;8.15;;;1.30;98.80;;;;;;5030762;28;20112;-79
2021/03/18 05:57:39;;;;;;;19.58;8.23;;;1.40;98.90;;;;;;5031363;28;20060;-79
2021/03/18 06:00:09;;;;;;;18.98;9.13;;;1.40;98.90;;;;;;5033865;28;20045;-79
2021/03/18 06:02:37;;;;;;;16.95;8.98;;;1.40;98.80;;;;;;5027242;28;20439;-80
2021/03/18 06:05:11;;;;;;;16.55;8.63;;;1.40;98.80;;;;;;5025964;28;20037;-79
2021/03/18 06:07:51;;;;;;;17.33;8.50;;;1.50;98.90;;;;;;5024846;28;20033;-79
2021/03/18 06:10:24;;;;;;;17.27;8.27;;;1.50;98.80;;;;;;5008023;28;20074;-79
2021/03/18 06:13:00;;;;;;;17.60;8.90;;;1.60;98.90;;;;;;5020527;28;20050;-79
2021/03/18 06:15:26;;;;;;;16.25;8.98;;;1.50;98.90;;;;;;5035262;28;20033;-78
2021/03/18 06:17:55;;;;;;;16.05;9.15;;;1.60;98.90;;;;;;5022606;28;20030;-78
2021/03/18 06:20:24;;;;;;;14.63;8.02;;;1.70;98.90;;;;;;5027423;28;20025;-78
2021/03/18 06:22:51;;;;;;;19.65;8.55;;;1.70;98.90;;;;;;5033359;28;20157;-75
2021/03/18 06:25:36;;;;;;;23.17;9.48;;;1.80;99.00;;;;;;5023477;28;20145;-77
2021/03/18 06:28:15;;;;;;;19.13;8.82;;;1.90;99.00;;;;;;5024592;28;20042;-75
2021/03/18 06:30:54;;;;;;;20.20;7.78;;;1.90;99.00;;;;;;5011142;28;20080;-76
2021/03/18 06:33:22;;;;;;;20.23;7.75;;;2.00;99.00;;;;;;5037062;28;20486;-76
2021/03/18 06:35:48;;;;;;;26.10;8.57;;;2.00;98.90;;;;;;5023254;28;20065;-78
2021/03/18 06:38:14;;;;;;;15.88;8.02;;;2.10;99.00;;;;;;5017603;28;20175;-78
2021/03/18 06:40:45;;;;;;;15.70;8.13;;;2.20;99.10;;;;;;5016678;28;20029;-77
2021/03/18 06:43:11;;;;;;;16.92;8.00;;;2.20;99.00;;;;;;5016359;28;20050;-76
2021/03/18 06:45:43;;;;;;;15.23;7.60;;;2.20;98.90;;;;;;5013827;28;20486;-76
2021/03/18 06:48:18;;;;;;;15.32;7.88;;;2.30;98.90;;;;;;5027114;28;20055;-76
2021/03/18 06:50:45;;;;;;;;;;;2.30;98.90;;;;;;5032273;28;20049;-76
2021/03/18 06:53:18;;;;;;;19.20;7.53;;;2.40;98.80;;;;;;5021265;28;19921;-77
2021/03/18 06:55:44;;;;;;;19.25;7.88;;;2.40;98.90;;;;;;5030340;28;20073;-77
2021/03/18 06:58:27;;;;;;;18.70;8.48;;;2.40;98.80;;;;;;5024857;28;20076;-77
2021/03/18 07:00:59;;;;;;;18.52;7.30;;;2.50;98.80;;;;;;5028935;28;20041;-76
2021/03/18 07:03:26;;;;;;;15.88;7.38;;;2.50;98.80;;;;;;5027285;28;20048;-77
2021/03/18 07:05:52;;;;;;;15.25;7.32;;;2.50;98.70;;;;;;5023701;28;20042;-76
2021/03/18 07:08:38;;;;;;;15.70;7.55;;;2.60;98.60;;;;;;5023629;28;20046;-77
2021/03/18 07:11:19;;;;;;;15.38;8.73;;;2.50;98.60;;;;;;5028380;28;20435;-76
2021/03/18 07:13:46;;;;;;;16.25;8.07;;;2.60;98.70;;;;;;5027763;28;20116;-76
2021/03/18 07:16:14;;;;;;;16.92;8.77;;;2.60;98.70;;;;;;5017464;28;20121;-76
2021/03/18 07:18:40;;;;;;;16.33;9.05;;;2.60;98.70;;;;;;5016351;28;20843;-76
2021/03/18 07:21:13;;;;;;;15.25;8.85;;;2.70;98.70;;;;;;5014397;28;20041;-75
2021/03/18 07:23:47;;;;;;;19.95;9.60;;;2.70;98.80;;;;;;5044371;28;20050;-75
2021/03/18 07:26:16;;;;;;;20.92;9.00;;;2.80;98.80;;;;;;5022313;28;20470;-76
2021/03/18 07:28:45;;;;;;;20.00;9.00;;;2.80;98.80;;;;;;5030083;28;20038;-76
2021/03/18 07:31:11;;;;;;;15.30;8.98;;;2.90;98.80;;;;;;5016845;28;20036;-76
2021/03/18 07:33:37;;;;;;;21.95;8.70;;;2.90;98.80;;;;;;5030571;28;20063;-75
2021/03/18 07:36:04;;;;;;;20.85;8.73;;;3.00;98.80;;;;;;5029995;28;20136;-75
2021/03/18 07:38:30;;;;;;;15.02;8.30;;;3.00;98.80;;;;;;5029092;28;20095;-75
2021/03/18 07:40:57;;;;;;;18.23;8.57;;;3.10;98.80;;;;;;5021876;28;20073;-75
2021/03/18 07:43:24;;;;;;;19.33;8.30;;;3.10;98.80;;;;;;5012971;28;20172;-77
2021/03/18 07:45:52;;;;;;;16.70;8.45;;;3.20;99.10;;;;;;5031280;28;20046;-76
2021/03/18 07:48:22;;;;;;;17.52;8.93;;;3.20;98.80;;;;;;5027859;28;20068;-75
2021/03/18 07:50:50;;;;;;;18.42;8.18;;;3.30;98.80;;;;;;5033313;28;20037;-75
2021/03/18 07:53:20;;;;;;;17.17;7.90;;;3.30;98.80;;;;;;5023944;28;20045;-75
2021/03/18 07:55:48;;;;;;;16.92;8.63;;;3.40;98.80;;;;;;5026056;28;20041;-75
2021/03/18 07:58:14;;;;;;;20.80;8.50;;;3.50;98.80;;;;;;5026548;28;20478;-75
2021/03/18 08:00:43;;;;;;;17.95;9.27;;;3.60;98.90;;;;;;5029805;28;20037;-75
2021/03/18 08:03:21;;;;;;;18.95;9.77;;;3.60;98.90;;;;;;5019696;28;20119;-77
2021/03/18 08:05:49;;;;;;;17.10;7.70;;;3.70;98.90;;;;;;5030031;28;20678;-77
2021/03/18 08:08:36;;;;;;;19.10;8.18;;;3.70;98.80;;;;;;5025820;28;20053;-76
2021/03/18 08:11:06;;;;;;;16.63;8.25;;;3.90;98.90;;;;;;5025883;28;20045;-77
2021/03/18 08:13:33;;;;;;;15.48;7.65;;;4.00;98.90;;;;;;5026546;28;20049;-77
2021/03/18 08:16:00;;;;;;;15.02;7.93;;;4.20;98.90;;;;;;5023797;28;20068;-76
2021/03/18 08:18:26;;;;;;;17.58;8.80;;;4.20;98.80;;;;;;5021378;28;20141;-76
2021/03/18 08:20:52;;;;;;;19.13;7.80;;;4.30;98.80;;;;;;5031847;28;20175;-77
2021/03/18 08:23:24;;;;;;;13.73;7.28;;;4.40;98.80;;;;;;5017818;28;20397;-75
2021/03/18 08:26:11;;;;;;;13.82;7.47;;;4.40;98.60;;;;;;5014451;28;20061;-76
2021/03/18 08:28:41;;;;;;;18.58;7.15;;;4.50;98.50;;;;;;5018287;28;20038;-76
2021/03/18 08:31:10;;;;;;;14.70;7.05;;;4.50;98.40;;;;;;5038954;28;20053;-76
2021/03/18 08:33:39;;;;;;;17.50;6.90;;;4.50;98.50;;;;;;5022337;28;20045;-75
2021/03/18 08:36:31;;;;;;;18.35;7.20;;;4.60;98.50;;;;;;5023992;28;20137;-77
2021/03/18 08:39:26;;;;;;;15.43;6.97;;;4.70;98.30;;;;;;5019452;28;20050;-77
2021/03/18 08:41:52;;;;;;;18.52;6.72;;;4.70;98.40;;;;;;5022210;28;20497;-77
2021/03/18 08:44:26;;;;;;;13.15;6.63;;;4.80;98.20;;;;;;5016535;28;20076;-77
2021/03/18 08:46:58;;;;;;;19.02;7.78;;;4.90;98.60;;;;;;5022783;28;20061;-77
2021/03/18 08:49:37;;;;;;;13.68;6.40;;;5.00;98.20;;;;;;5027648;28;20045;-77
2021/03/18 08:52:26;;;;;;;13.75;6.40;;;5.10;98.20;;;;;;5020544;28;20390;-76
2021/03/18 08:54:53;;;;;;;17.42;5.90;;;5.30;98.20;;;;;;5010392;28;20069;-77
2021/03/18 08:57:34;;;;;;;14.55;5.70;;;5.30;97.80;;;;;;5022230;28;20050;-77
2021/03/18 09:00:05;;;;;;;15.10;6.18;;;5.50;97.90;;;;;;5035449;28;20063;-77
2021/03/18 09:02:34;;;;;;;15.52;5.88;;;5.50;97.70;;;;;;5022336;28;20041;-78
2021/03/18 09:05:12;;;;;;;20.17;5.68;;;5.70;97.70;;;;;;5020920;28;20126;-78
2021/03/18 09:07:40;;;;;;;19.10;5.75;;;5.70;97.60;;;;;;5025279;28;20055;-78
2021/03/18 09:10:08;;;;;;;18.70;5.90;;;5.80;97.60;;;;;;5020427;28;20131;-78
2021/03/18 09:12:41;;;;;;;29.27;6.53;;;5.90;97.50;;;;;;5022352;28;20036;-78
2021/03/18 09:15:31;;;;;;;19.48;5.28;;;5.90;97.30;;;;;;5021917;28;20057;-78
2021/03/18 09:18:19;;;;;;;20.55;5.07;;;5.90;97.00;;;;;;5018111;28;20049;-77
2021/03/18 09:20:58;;;;;;;19.17;5.57;;;5.90;96.80;;;;;;5024564;28;20030;-77
2021/03/18 09:23:28;;;;;;;13.57;4.63;;;5.80;97.00;;;;;;5035494;28;20053;-77
2021/03/18 09:25:58;;;;;;;15.77;4.57;;;5.90;97.00;;;;;;5022037;28;20422;-80
2021/03/18 09:28:25;;;;;;;18.75;5.25;;;5.90;96.60;;;;;;5024867;28;20107;-78
2021/03/18 09:30:55;;;;;;;24.80;5.45;;;5.90;96.60;;;;;;5019780;28;20040;-78
2021/03/18 09:33:28;;;;;;;15.40;4.57;;;5.90;96.40;;;;;;5029446;28;20032;-78
2021/03/18 09:35:56;;;;;;;19.27;4.93;;;6.00;96.50;;;;;;5033508;28;20060;-78
2021/03/18 09:38:32;;;;;;;16.98;4.47;;;6.10;96.40;;;;;;5025113;28;20119;-78
2021/03/18 09:41:00;;;;;;;15.70;4.40;;;6.10;96.20;;;;;;5015093;28;20041;-78
2021/03/18 09:43:28;;;;;;;16.38;4.90;;;6.10;96.00;;;;;;5023936;28;20049;-78
2021/03/18 09:46:01;;;;;;;20.05;4.00;;;6.10;96.00;;;;;;5018760;28;20038;-78
2021/03/18 09:48:33;;;;;;;18.65;4.43;;;6.20;96.10;;;;;;5022722;28;20113;-78
2021/03/18 09:51:14;;;;;;;18.90;4.85;;;6.20;96.10;;;;;;5020629;28;20057;-78
2021/03/18 09:53:42;;;;;;;17.98;4.50;;;6.30;96.40;;;;;;5020757;28;20448;-78
2021/03/18 09:56:13;;;;;;;15.73;5.25;;;6.40;96.30;;;;;;5030949;28;20053;-78
2021/03/18 09:58:40;;;;;;;15.90;4.75;;;6.40;96.40;;;;;;5019534;28;20123;-78
2021/03/18 10:01:25;;;;;;;21.25;5.95;;;6.50;96.10;;;;;;5023004;28;20485;-78
2021/03/18 10:04:03;;;;;;;23.48;4.75;;;6.70;95.80;;;;;;5019181;28;20053;-78
2021/03/18 10:06:35;;;;;;;23.45;5.85;;;6.90;95.80;;;;;;5025114;28;20064;-78
2021/03/18 10:09:16;;;;;;;19.08;4.18;;;7.10;95.80;;;;;;5015532;28;20052;-77
2021/03/18 10:11:43;;;;;;;13.90;4.53;;;7.40;95.80;;;;;;5019600;28;20503;-78
2021/03/18 10:14:10;;;;;;;18.15;4.97;;;7.60;95.50;;;;;;5023445;28;20080;-78
2021/03/18 10:16:37;;;;;;;19.02;4.00;;;7.80;94.70;;;;;;5023023;28;20109;-78
2021/03/18 10:19:05;;;;;;;24.83;4.65;;;7.90;94.60;;;;;;5023272;28;20108;-78
2021/03/18 10:21:32;;;;;;;19.25;4.47;;;7.90;94.50;;;;;;5021861;28;20101;-77
2021/03/18 10:23:58;;;;;;;17.30;4.18;;;8.00;93.60;;;;;;5017443;28;20100;-76
2021/03/18 10:26:25;;;;;;;20.08;4.88;;;8.00;93.50;;;;;;5038669;28;20049;-77
2021/03/18 10:29:02;;;;;;;21.48;4.78;;;8.00;93.50;;;;;;5017033;28;20036;-77
2021/03/18 10:31:30;;;;;;;21.42;4.93;;;8.10;92.40;;;;;;5024338;28;20409;-77
2021/03/18 10:33:56;;;;;;;21.13;5.45;;;8.10;92.90;;;;;;5019843;28;20053;-77
2021/03/18 10:36:38;;;;;;;23.48;4.63;;;8.20;92.20;;;;;;5023420;28;20124;-77
2021/03/18 10:39:08;;;;;;;20.98;4.45;;;8.50;91.90;;;;;;5018717;28;20052;-78
2021/03/18 10:41:48;;;;;;;16.08;4.25;;;8.50;92.40;;;;;;5017119;28;20073;-76
2021/03/18 10:44:14;;;;;;;19.73;4.65;;;8.60;91.40;;;;;;5017744;28;20359;-76
2021/03/18 10:46:40;;;;;;;17.23;3.95;;;8.60;91.70;;;;;;5039355;28;20105;-76
2021/03/18 10:49:08;;;;;;;18.98;4.50;;;8.50;91.30;;;;;;5024414;28;20536;-77
2021/03/18 10:51:53;;;;;;;20.75;4.65;;;8.50;91.10;;;;;;5026050;28;20087;-76
2021/03/18 10:54:21;;;;;;;23.33;4.38;;;8.40;91.00;;;;;;5019155;28;20457;-76
2021/03/18 10:56:49;;;;;;;20.15;3.90;;;8.20;91.10;;;;;;5025792;28;20037;-76
2021/03/18 10:59:20;;;;;;;18.80;4.45;;;8.30;91.50;;;;;;5016850;28;20377;-75
2021/03/18 11:01:46;;;;;;;13.07;3.42;;;8.30;91.00;;;;;;5022476;28;20049;-75
2021/03/18 11:04:13;;;;;;;21.52;3.67;;;8.30;90.50;;;;;;5021112;28;20492;-74
2021/03/18 11:06:56;;;;;;;17.75;3.75;;;8.30;90.30;;;;;;5020506;28;20060;-76
2021/03/18 11:09:37;;;;;;;21.52;4.45;;;8.30;90.00;;;;;;5004091;28;20483;-77
2021/03/18 11:12:25;;;;;;;21.85;4.13;;;8.30;90.30;;;;;;5021986;28;20048;-76
2021/03/18 11:15:04;;;;;;;21.85;3.75;;;8.20;90.70;;;;;;5011421;28;20505;-76
2021/03/18 11:17:46;;;;;;;17.42;3.72;;;8.30;90.30;;;;;;5019293;28;20037;-75
2021/03/18 11:20:29;;;;;;;16.80;3.30;;;8.20;88.90;;;;;;5021171;28;20033;-76
2021/03/18 11:23:11;;;;;;;13.25;3.03;;;8.20;89.10;;;;;;5017539;28;20519;-75
2021/03/18 11:26:02;;;;;;;16.08;3.38;;;8.20;87.10;;;;;;5014387;28;20048;-75
2021/03/18 11:28:58;;;;;;;13.95;2.67;;;8.40;87.80;;;;;;5022311;28;20060;-75
2021/03/18 11:31:46;;;;;;;16.10;3.35;;;8.50;86.60;;;;;;5021331;28;20466;-76
2021/03/18 11:34:33;;;;;;;14.75;2.00;;;8.70;87.10;;;;;;5029074;28;20044;-75
2021/03/18 11:37:16;;;;;;;11.55;2.72;;;8.80;86.20;;;;;;5025743;28;20037;-77
2021/03/18 11:39:55;;;;;;;10.23;2.08;;;9.00;85.10;;;;;;5029271;28;20041;-76
2021/03/18 11:42:36;;;;;;;10.40;1.98;;;9.10;85.10;;;;;;5020229;28;20056;-75
2021/03/18 11:45:19;;;;;;;9.18;1.77;;;9.10;80.00;;;;;;5016761;28;20049;-75
2021/03/18 11:48:00;;;;;;;10.80;1.83;;;9.00;80.10;;;;;;5024524;28;20536;-77
2021/03/18 11:50:43;;;;;;;12.80;1.98;;;8.90;79.90;;;;;;5025680;28;20033;-76
2021/03/18 11:53:26;;;;;;;9.02;1.80;;;8.80;78.60;;;;;;5022689;28;20057;-75
2021/03/18 11:56:08;;;;;;;8.70;1.58;;;8.70;80.00;;;;;;5017418;28;20445;-74
2021/03/18 11:58:50;;;;;;;11.75;3.65;;;8.60;77.40;;;;;;5019074;28;20072;-75
2021/03/18 12:01:31;;;;;;;9.27;1.30;;;8.50;77.90;;;;;;5017184;28;20355;-76
2021/03/18 12:04:12;;;;;;;10.57;1.73;;;8.50;78.50;;;;;;5024585;28;20047;-75
2021/03/18 12:06:53;;;;;;;9.75;1.83;;;8.50;78.60;;;;;;5015697;28;20045;-75
2021/03/18 12:09:34;;;;;;;8.48;1.52;;;8.60;77.80;;;;;;5023053;28;20039;-76
2021/03/18 12:12:21;;;;;;;10.32;1.90;;;8.60;79.10;;;;;;5014415;28;20055;-74
2021/03/18 12:15:01;;;;;;;12.02;2.08;;;8.70;78.90;;;;;;5022475;28;20045;-74
2021/03/18 12:17:34;;;;;;;10.20;1.80;;;8.70;77.60;;;;;;5021147;28;20111;-75
2021/03/18 12:20:16;;;;;;;9.57;1.60;;;8.60;78.40;;;;;;5021405;28;20041;-75
2021/03/18 12:22:57;;;;;;;10.90;1.95;;;8.60;78.50;;;;;;5027402;28;20481;-75
2021/03/18 12:25:39;;;;;;;8.80;1.67;;;8.60;79.00;;;;;;5028640;28;20454;-75
2021/03/18 12:28:13;;;;;;;12.02;2.00;;;8.60;79.70;;;;;;5017247;28;20116;-75
2021/03/18 12:30:53;;;;;;;13.93;2.20;;;8.50;80.30;;;;;;5027189;28;20115;-75
2021/03/18 12:33:35;;;;;;;10.38;1.80;;;8.30;81.20;;;;;;5022734;28;20049;-76
2021/03/18 12:36:18;;;;;;;10.82;2.00;;;8.30;82.70;;;;;;5020104;28;20130;-76
2021/03/18 12:39:01;;;;;;;9.20;2.00;;;8.10;83.20;;;;;;5029949;28;20050;-76
2021/03/18 12:41:44;;;;;;;12.70;1.52;;;8.00;83.40;;;;;;5018085;28;20374;-76
2021/03/18 12:44:26;;;;;;;8.90;1.30;;;8.00;83.50;;;;;;5017966;28;20042;-76
2021/03/18 12:46:57;;;;;;;7.38;1.58;;;7.90;83.30;;;;;;5024849;28;20045;-75
2021/03/18 12:49:23;;;;;;;8.35;1.48;;;8.00;82.90;;;;;;5023542;28;20042;-76
2021/03/18 12:51:57;;;;;;;6.35;1.55;;;8.00;82.80;;;;;;5021411;28;20120;-76
2021/03/18 12:54:39;;;;;;;7.43;1.10;;;8.20;84.20;;;;;;5014762;28;20091;-77
2021/03/18 12:57:21;;;;;;;6.78;1.20;;;8.40;83.10;;;;;;5021977;28;20065;-76
2021/03/18 13:00:02;;;;;;;10.35;1.67;;;8.50;82.20;;;;;;5013161;28;20041;-76
2021/03/18 13:02:34;;;;;;;6.15;1.23;;;8.50;82.40;;;;;;5017043;28;20041;-76
2021/03/18 13:05:00;;;;;;;7.90;1.30;;;8.50;82.00;;;;;;5012959;28;20050;-76
2021/03/18 13:07:26;;;;;;;9.50;1.77;;;8.60;82.60;;;;;;5020348;28;20570;-76
2021/03/18 13:09:52;;;;;;;7.85;1.40;;;8.50;83.30;;;;;;5012354;28;20489;-76